sensor_id;sensor_type;location;lat;lon;timestamp;pressure;altitude;pressure_sealevel;temperature;humidity
48041;BME280;33815;48.386;11.738;2023-03-21T00:00:29;96767.34;;;1.80;100.00
48041;BME280;33815;48.386;11.738;2023-03-21T00:02:55;96750.53;;;1.89;100.00
48041;BME280;33815;48.386;11.738;2023-03-21T00:05:20;96754.03;;;2.02;100.00
48041;BME280;33815;48.386;11.738;2023-03-21T00:07:46;96745.22;;;2.07;100.00
48041;BME280;33815;48.386;11.738;2023-03-21T00:10:11;96754.19;;;2.28;100.00
48041;BME280;33815;48.386;11.738;2023-03-21T00:12:37;96750.13;;;2.38;100.00
48041;BME280;33815;48.386;11.738;2023-03-21T00:15:04;96750.66;;;2.44;100.00
48041;BME280;33815;48.386;11.738;2023-03-21T00:17:30;96747.88;;;2.47;100.00
48041;BME280;33815;48.386;11.738;2023-03-21T00:19:59;96745.31;;;2.47;100.00
48041;BME280;33815;48.386;11.738;2023-03-21T00:22:26;96747.28;;;2.43;100.00
48041;BME280;33815;48.386;11.738;2023-03-21T00:24:52;96738.91;;;2.39;100.00
48041;BME280;33815;48.386;11.738;2023-03-21T00:27:17;96711.66;;;2.22;100.00
48041;BME280;33815;48.386;11.738;2023-03-21T00:29:46;96740.81;;;2.50;100.00
48041;BME280;33815;48.386;11.738;2023-03-21T00:32:16;96739.50;;;2.57;100.00
48041;BME280;33815;48.386;11.738;2023-03-21T00:34:43;96733.34;;;2.60;100.00
48041;BME280;33815;48.386;11.738;2023-03-21T00:37:09;96724.41;;;2.66;100.00
48041;BME280;33815;48.386;11.738;2023-03-21T00:39:37;96739.28;;;2.75;100.00
48041;BME280;33815;48.386;11.738;2023-03-21T00:42:02;96720.41;;;2.74;100.00
48041;BME280;33815;48.386;11.738;2023-03-21T00:44:28;96720.84;;;2.81;100.00
48041;BME280;33815;48.386;11.738;2023-03-21T00:46:53;96731.63;;;3.01;100.00
48041;BME280;33815;48.386;11.738;2023-03-21T00:49:18;96732.88;;;3.08;100.00
48041;BME280;33815;48.386;11.738;2023-03-21T00:51:46;96727.41;;;3.13;100.00
48041;BME280;33815;48.386;11.738;2023-03-21T00:54:16;96718.06;;;3.12;100.00
48041;BME280;33815;48.386;11.738;2023-03-21T00:56:42;96709.09;;;3.17;100.00
48041;BME280;33815;48.386;11.738;2023-03-21T00:59:07;96715.38;;;3.26;100.00
48041;BME280;33815;48.386;11.738;2023-03-21T01:01:33;96698.16;;;3.26;100.00
48041;BME280;33815;48.386;11.738;2023-03-21T01:03:59;96702.94;;;3.33;100.00
48041;BME280;33815;48.386;11.738;2023-03-21T01:06:29;96697.56;;;3.36;100.00
48041;BME280;33815;48.386;11.738;2023-03-21T01:08:54;96696.66;;;3.37;100.00
48041;BME280;33815;48.386;11.738;2023-03-21T01:11:27;96702.50;;;3.39;100.00
48041;BME280;33815;48.386;11.738;2023-03-21T01:13:53;96699.53;;;3.45;100.00
48041;BME280;33815;48.386;11.738;2023-03-21T01:16:18;96698.59;;;3.46;100.00
48041;BME280;33815;48.386;11.738;2023-03-21T01:18:44;96703.63;;;3.48;100.00
48041;BME280;33815;48.386;11.738;2023-03-21T01:21:11;96696.53;;;3.51;100.00
48041;BME280;33815;48.386;11.738;2023-03-21T01:23:38;96690.25;;;3.55;100.00
48041;BME280;33815;48.386;11.738;2023-03-21T01:26:05;96688.59;;;3.54;100.00
48041;BME280;33815;48.386;11.738;2023-03-21T01:28:30;96694.56;;;3.68;100.00
48041;BME280;33815;48.386;11.738;2023-03-21T01:30:59;96690.22;;;3.68;100.00
48041;BME280;33815;48.386;11.738;2023-03-21T01:33:25;96679.50;;;3.62;100.00
48041;BME280;33815;48.386;11.738;2023-03-21T01:35:51;96689.81;;;3.74;100.00
48041;BME280;33815;48.386;11.738;2023-03-21T01:38:16;96697.13;;;3.81;100.00
48041;BME280;33815;48.386;11.738;2023-03-21T01:40:46;96686.50;;;3.85;100.00
48041;BME280;33815;48.386;11.738;2023-03-21T01:43:25;96687.22;;;3.87;100.00
48041;BME280;33815;48.386;11.738;2023-03-21T01:48:35;96689.59;;;3.90;100.00
48041;BME280;33815;48.386;11.738;2023-03-21T01:51:03;96674.75;;;3.81;100.00
48041;BME280;33815;48.386;11.738;2023-03-21T01:53:31;96690.19;;;3.94;100.00
48041;BME280;33815;48.386;11.738;2023-03-21T01:56:00;96688.22;;;3.98;100.00
48041;BME280;33815;48.386;11.738;2023-03-21T01:58:27;96689.44;;;4.05;100.00
48041;BME280;33815;48.386;11.738;2023-03-21T02:00:54;96686.88;;;4.05;100.00
48041;BME280;33815;48.386;11.738;2023-03-21T02:03:20;96675.22;;;3.99;100.00
48041;BME280;33815;48.386;11.738;2023-03-21T02:05:54;96678.31;;;4.04;100.00
48041;BME280;33815;48.386;11.738;2023-03-21T02:08:21;96672.44;;;4.02;100.00
48041;BME280;33815;48.386;11.738;2023-03-21T02:10:47;96682.44;;;4.07;100.00
48041;BME280;33815;48.386;11.738;2023-03-21T02:13:14;96678.09;;;4.07;100.00
48041;BME280;33815;48.386;11.738;2023-03-21T02:15:42;96677.53;;;4.15;100.00
48041;BME280;33815;48.386;11.738;2023-03-21T02:21:23;96671.97;;;4.21;100.00
48041;BME280;33815;48.386;11.738;2023-03-21T02:24:09;96671.91;;;4.34;100.00
48041;BME280;33815;48.386;11.738;2023-03-21T02:37:25;96675.00;;;4.39;100.00
48041;BME280;33815;48.386;11.738;2023-03-21T02:42:58;96666.94;;;4.44;100.00
48041;BME280;33815;48.386;11.738;2023-03-21T02:45:35;96653.03;;;4.34;100.00
48041;BME280;33815;48.386;11.738;2023-03-21T02:48:07;96648.00;;;4.32;100.00
48041;BME280;33815;48.386;11.738;2023-03-21T02:50:42;96665.28;;;4.43;100.00
48041;BME280;33815;48.386;11.738;2023-03-21T02:53:13;96667.38;;;4.38;100.00
48041;BME280;33815;48.386;11.738;2023-03-21T02:55:41;96673.56;;;4.35;100.00
48041;BME280;33815;48.386;11.738;2023-03-21T02:58:08;96661.59;;;4.34;100.00
48041;BME280;33815;48.386;11.738;2023-03-21T03:00:35;96675.00;;;4.39;100.00
48041;BME280;33815;48.386;11.738;2023-03-21T03:03:01;96660.56;;;4.37;100.00
48041;BME280;33815;48.386;11.738;2023-03-21T03:05:30;96670.66;;;4.40;100.00
48041;BME280;33815;48.386;11.738;2023-03-21T03:08:09;96657.16;;;4.36;100.00
48041;BME280;33815;48.386;11.738;2023-03-21T03:18:51;96654.13;;;4.42;100.00
48041;BME280;33815;48.386;11.738;2023-03-21T03:21:38;96656.09;;;4.39;100.00
48041;BME280;33815;48.386;11.738;2023-03-21T03:24:09;96647.94;;;4.45;100.00
48041;BME280;33815;48.386;11.738;2023-03-21T03:26:47;96647.72;;;4.48;100.00
48041;BME280;33815;48.386;11.738;2023-03-21T03:29:16;96654.72;;;4.46;100.00
48041;BME280;33815;48.386;11.738;2023-03-21T03:31:48;96656.38;;;4.47;100.00
48041;BME280;33815;48.386;11.738;2023-03-21T03:34:20;96646.06;;;4.47;100.00
48041;BME280;33815;48.386;11.738;2023-03-21T03:36:48;96644.91;;;4.51;100.00
48041;BME280;33815;48.386;11.738;2023-03-21T03:39:16;96645.47;;;4.43;100.00
48041;BME280;33815;48.386;11.738;2023-03-21T03:41:50;96644.50;;;4.44;100.00
48041;BME280;33815;48.386;11.738;2023-03-21T03:44:17;96652.53;;;4.53;100.00
48041;BME280;33815;48.386;11.738;2023-03-21T03:46:47;96646.44;;;4.54;100.00
48041;BME280;33815;48.386;11.738;2023-03-21T03:49:20;96645.00;;;4.50;100.00
48041;BME280;33815;48.386;11.738;2023-03-21T03:51:56;96648.53;;;4.49;100.00
48041;BME280;33815;48.386;11.738;2023-03-21T03:54:27;96645.00;;;4.50;100.00
48041;BME280;33815;48.386;11.738;2023-03-21T03:56:54;96645.81;;;4.50;100.00
48041;BME280;33815;48.386;11.738;2023-03-21T03:59:20;96652.22;;;4.57;100.00
48041;BME280;33815;48.386;11.738;2023-03-21T04:01:49;96645.91;;;4.61;100.00
48041;BME280;33815;48.386;11.738;2023-03-21T04:04:15;96651.06;;;4.61;100.00
48041;BME280;33815;48.386;11.738;2023-03-21T04:06:42;96638.59;;;4.55;100.00
48041;BME280;33815;48.386;11.738;2023-03-21T04:09:10;96645.78;;;4.63;100.00
48041;BME280;33815;48.386;11.738;2023-03-21T04:11:36;96648.84;;;4.68;100.00
48041;BME280;33815;48.386;11.738;2023-03-21T04:14:01;96642.63;;;4.71;100.00
48041;BME280;33815;48.386;11.738;2023-03-21T04:16:26;96626.41;;;4.57;100.00
48041;BME280;33815;48.386;11.738;2023-03-21T04:18:52;96642.38;;;4.62;100.00
48041;BME280;33815;48.386;11.738;2023-03-21T04:21:18;96650.50;;;4.69;100.00
48041;BME280;33815;48.386;11.738;2023-03-21T04:23:43;96643.56;;;4.70;100.00
48041;BME280;33815;48.386;11.738;2023-03-21T04:26:09;96641.44;;;4.63;100.00
48041;BME280;33815;48.386;11.738;2023-03-21T04:28:34;96643.69;;;4.68;100.00
48041;BME280;33815;48.386;11.738;2023-03-21T04:31:03;96644.84;;;4.64;100.00
48041;BME280;33815;48.386;11.738;2023-03-21T04:33:28;96649.19;;;4.63;100.00
48041;BME280;33815;48.386;11.738;2023-03-21T04:35:54;96648.25;;;4.65;100.00
48041;BME280;33815;48.386;11.738;2023-03-21T04:38:24;96640.63;;;4.63;100.00
48041;BME280;33815;48.386;11.738;2023-03-21T04:40:50;96643.22;;;4.63;100.00
48041;BME280;33815;48.386;11.738;2023-03-21T04:43:15;96636.28;;;4.63;100.00
48041;BME280;33815;48.386;11.738;2023-03-21T04:45:41;96637.59;;;4.69;100.00
48041;BME280;33815;48.386;11.738;2023-03-21T04:48:06;96630.53;;;4.71;100.00
48041;BME280;33815;48.386;11.738;2023-03-21T04:50:32;96630.06;;;4.66;100.00
48041;BME280;33815;48.386;11.738;2023-03-21T04:52:57;96635.34;;;4.65;100.00
48041;BME280;33815;48.386;11.738;2023-03-21T04:55:22;96639.34;;;4.69;100.00
48041;BME280;33815;48.386;11.738;2023-03-21T04:57:50;96629.13;;;4.67;100.00
48041;BME280;33815;48.386;11.738;2023-03-21T05:00:16;96632.03;;;4.62;100.00
48041;BME280;33815;48.386;11.738;2023-03-21T05:02:41;96636.78;;;4.69;100.00
48041;BME280;33815;48.386;11.738;2023-03-21T05:05:06;96640.97;;;4.70;100.00
48041;BME280;33815;48.386;11.738;2023-03-21T05:07:36;96641.44;;;4.63;100.00
48041;BME280;33815;48.386;11.738;2023-03-21T05:10:01;96638.34;;;4.58;100.00
48041;BME280;33815;48.386;11.738;2023-03-21T05:12:26;96635.66;;;4.60;100.00
48041;BME280;33815;48.386;11.738;2023-03-21T05:14:52;96636.28;;;4.63;100.00
48041;BME280;33815;48.386;11.738;2023-03-21T05:17:17;96635.56;;;4.61;100.00
48041;BME280;33815;48.386;11.738;2023-03-21T05:19:47;96622.28;;;4.55;100.00
48041;BME280;33815;48.386;11.738;2023-03-21T05:22:15;96634.03;;;4.59;100.00
48041;BME280;33815;48.386;11.738;2023-03-21T05:24:43;96637.94;;;4.65;100.00
48041;BME280;33815;48.386;11.738;2023-03-21T05:27:17;96642.06;;;4.67;100.00
48041;BME280;33815;48.386;11.738;2023-03-21T05:30:07;96644.16;;;4.73;100.00
48041;BME280;33815;48.386;11.738;2023-03-21T05:32:33;96641.97;;;4.80;100.00
48041;BME280;33815;48.386;11.738;2023-03-21T05:34:58;96650.31;;;4.84;100.00
48041;BME280;33815;48.386;11.738;2023-03-21T05:37:24;96648.31;;;4.87;100.00
48041;BME280;33815;48.386;11.738;2023-03-21T05:39:49;96649.28;;;4.97;100.00
48041;BME280;33815;48.386;11.738;2023-03-21T05:42:15;96627.16;;;4.82;100.00
48041;BME280;33815;48.386;11.738;2023-03-21T05:44:42;96645.03;;;4.96;100.00
48041;BME280;33815;48.386;11.738;2023-03-21T05:47:08;96650.69;;;5.02;100.00
48041;BME280;33815;48.386;11.738;2023-03-21T05:49:33;96640.25;;;5.03;100.00
48041;BME280;33815;48.386;11.738;2023-03-21T05:51:58;96641.94;;;5.15;100.00
48041;BME280;33815;48.386;11.738;2023-03-21T05:54:24;96652.88;;;5.30;100.00
48041;BME280;33815;48.386;11.738;2023-03-21T05:56:49;96650.88;;;5.34;100.00
48041;BME280;33815;48.386;11.738;2023-03-21T05:59:15;96650.44;;;5.40;100.00
48041;BME280;33815;48.386;11.738;2023-03-21T06:01:40;96641.84;;;5.40;100.00
48041;BME280;33815;48.386;11.738;2023-03-21T06:04:06;96652.91;;;5.53;100.00
48041;BME280;33815;48.386;11.738;2023-03-21T06:06:31;96629.28;;;5.46;100.00
48041;BME280;33815;48.386;11.738;2023-03-21T06:08:56;96640.78;;;5.65;100.00
48041;BME280;33815;48.386;11.738;2023-03-21T06:11:27;96641.25;;;5.59;100.00
48041;BME280;33815;48.386;11.738;2023-03-21T06:13:52;96654.19;;;5.70;100.00
48041;BME280;33815;48.386;11.738;2023-03-21T06:16:18;96653.72;;;5.76;100.00
48041;BME280;33815;48.386;11.738;2023-03-21T06:18:43;96664.63;;;5.91;100.00
48041;BME280;33815;48.386;11.738;2023-03-21T06:21:08;96651.59;;;5.93;100.00
48041;BME280;33815;48.386;11.738;2023-03-21T06:23:34;96658.53;;;6.04;100.00
48041;BME280;33815;48.386;11.738;2023-03-21T06:26:00;96665.91;;;6.20;100.00
48041;BME280;33815;48.386;11.738;2023-03-21T06:28:26;96663.34;;;6.20;100.00
48041;BME280;33815;48.386;11.738;2023-03-21T06:30:51;96661.09;;;6.26;100.00
48041;BME280;33815;48.386;11.738;2023-03-21T06:33:16;96660.81;;;6.41;100.00
48041;BME280;33815;48.386;11.738;2023-03-21T06:35:41;96667.72;;;6.51;100.00
48041;BME280;33815;48.386;11.738;2023-03-21T06:38:07;96671.44;;;6.70;100.00
48041;BME280;33815;48.386;11.738;2023-03-21T06:40:32;96662.00;;;6.69;100.00
48041;BME280;33815;48.386;11.738;2023-03-21T06:42:57;96663.25;;;6.86;100.00
48041;BME280;33815;48.386;11.738;2023-03-21T06:45:23;96664.34;;;7.05;100.00
48041;BME280;33815;48.386;11.738;2023-03-21T06:47:49;96649.25;;;6.98;100.00
48041;BME280;33815;48.386;11.738;2023-03-21T06:50:15;96664.41;;;7.14;100.00
48041;BME280;33815;48.386;11.738;2023-03-21T06:52:40;96672.91;;;7.26;100.00
48041;BME280;33815;48.386;11.738;2023-03-21T06:55:06;96662.28;;;7.29;100.00
48041;BME280;33815;48.386;11.738;2023-03-21T06:57:31;96662.97;;;7.52;100.00
48041;BME280;33815;48.386;11.738;2023-03-21T06:59:56;96665.69;;;7.51;100.00
48041;BME280;33815;48.386;11.738;2023-03-21T07:02:22;96644.38;;;7.47;100.00
48041;BME280;33815;48.386;11.738;2023-03-21T07:04:47;96656.22;;;7.71;100.00
48041;BME280;33815;48.386;11.738;2023-03-21T07:07:12;96654.09;;;7.86;100.00
48041;BME280;33815;48.386;11.738;2023-03-21T07:09:39;96657.47;;;7.77;100.00
48041;BME280;33815;48.386;11.738;2023-03-21T07:12:04;96663.22;;;7.80;100.00
48041;BME280;33815;48.386;11.738;2023-03-21T07:14:30;96662.91;;;8.04;100.00
48041;BME280;33815;48.386;11.738;2023-03-21T07:16:56;96656.09;;;8.13;100.00
48041;BME280;33815;48.386;11.738;2023-03-21T07:19:21;96659.69;;;8.32;100.00
48041;BME280;33815;48.386;11.738;2023-03-21T07:21:47;96652.44;;;8.35;100.00
48041;BME280;33815;48.386;11.738;2023-03-21T07:24:12;96664.25;;;8.59;100.00
48041;BME280;33815;48.386;11.738;2023-03-21T07:26:37;96659.88;;;8.79;100.00
48041;BME280;33815;48.386;11.738;2023-03-21T07:29:03;96664.78;;;8.82;100.00
48041;BME280;33815;48.386;11.738;2023-03-21T07:31:28;96658.25;;;8.88;100.00
48041;BME280;33815;48.386;11.738;2023-03-21T07:33:54;96657.28;;;8.99;100.00
48041;BME280;33815;48.386;11.738;2023-03-21T07:36:19;96663.66;;;9.24;99.50
48041;BME280;33815;48.386;11.738;2023-03-21T07:38:45;96659.94;;;9.46;97.62
48041;BME280;33815;48.386;11.738;2023-03-21T07:41:11;96661.34;;;9.21;98.38
48041;BME280;33815;48.386;11.738;2023-03-21T07:43:36;96652.75;;;9.20;97.44
48041;BME280;33815;48.386;11.738;2023-03-21T07:46:02;96666.84;;;9.08;98.29
48041;BME280;33815;48.386;11.738;2023-03-21T07:48:28;96661.34;;;9.21;99.02
48041;BME280;33815;48.386;11.738;2023-03-21T07:50:53;96660.53;;;9.20;99.89
48041;BME280;33815;48.386;11.738;2023-03-21T07:53:19;96659.69;;;9.30;98.31
48041;BME280;33815;48.386;11.738;2023-03-21T07:55:51;96665.13;;;9.46;98.09
48041;BME280;33815;48.386;11.738;2023-03-21T07:58:17;96670.59;;;9.53;97.63
48041;BME280;33815;48.386;11.738;2023-03-21T08:00:42;96663.97;;;9.68;99.33
48041;BME280;33815;48.386;11.738;2023-03-21T08:03:08;96662.16;;;9.78;97.28
48041;BME280;33815;48.386;11.738;2023-03-21T08:05:35;96665.72;;;9.77;96.36
48041;BME280;33815;48.386;11.738;2023-03-21T08:08:01;96656.75;;;9.90;94.33
48041;BME280;33815;48.386;11.738;2023-03-21T08:10:26;96664.66;;;9.98;94.29
48041;BME280;33815;48.386;11.738;2023-03-21T08:12:52;96664.13;;;10.04;94.81
48041;BME280;33815;48.386;11.738;2023-03-21T08:15:18;96656.84;;;10.26;92.74
48041;BME280;33815;48.386;11.738;2023-03-21T08:17:43;96657.66;;;10.26;92.30
48041;BME280;33815;48.386;11.738;2023-03-21T08:20:14;96658.78;;;10.70;93.38
48041;BME280;33815;48.386;11.738;2023-03-21T08:22:40;96664.53;;;10.55;90.15
48041;BME280;33815;48.386;11.738;2023-03-21T08:25:06;96667.44;;;10.70;88.80
48041;BME280;33815;48.386;11.738;2023-03-21T08:27:33;96664.16;;;10.68;87.07
48041;BME280;33815;48.386;11.738;2023-03-21T08:29:59;96646.59;;;10.70;84.52
48041;BME280;33815;48.386;11.738;2023-03-21T08:32:25;96659.50;;;10.80;81.30
48041;BME280;33815;48.386;11.738;2023-03-21T08:34:58;96660.44;;;10.89;82.80
48041;BME280;33815;48.386;11.738;2023-03-21T08:37:25;96654.03;;;10.83;80.08
48041;BME280;33815;48.386;11.738;2023-03-21T08:39:51;96658.03;;;10.95;80.55
48041;BME280;33815;48.386;11.738;2023-03-21T08:42:17;96636.72;;;11.00;80.38
48041;BME280;33815;48.386;11.738;2023-03-21T08:44:42;96654.69;;;11.29;81.16
48041;BME280;33815;48.386;11.738;2023-03-21T08:47:07;96638.38;;;11.54;78.97
48041;BME280;33815;48.386;11.738;2023-03-21T08:49:36;96654.63;;;11.74;76.88
48041;BME280;33815;48.386;11.738;2023-03-21T08:52:01;96647.16;;;11.53;76.08
48041;BME280;33815;48.386;11.738;2023-03-21T08:54:27;96655.63;;;11.73;76.71
48041;BME280;33815;48.386;11.738;2023-03-21T08:56:52;96640.13;;;11.79;73.83
48041;BME280;33815;48.386;11.738;2023-03-21T08:59:19;96652.78;;;11.66;74.36
48041;BME280;33815;48.386;11.738;2023-03-21T09:01:44;96643.88;;;11.77;73.01
48041;BME280;33815;48.386;11.738;2023-03-21T09:04:11;96644.13;;;11.65;73.79
48041;BME280;33815;48.386;11.738;2023-03-21T09:06:37;96641.59;;;11.82;74.13
48041;BME280;33815;48.386;11.738;2023-03-21T09:09:05;96613.72;;;11.48;72.04
48041;BME280;33815;48.386;11.738;2023-03-21T09:11:32;96623.19;;;11.92;73.09
48041;BME280;33815;48.386;11.738;2023-03-21T09:13:57;96641.09;;;12.13;72.46
48041;BME280;33815;48.386;11.738;2023-03-21T09:16:22;96632.44;;;12.04;71.37
48041;BME280;33815;48.386;11.738;2023-03-21T09:18:49;96628.19;;;12.11;71.44
48041;BME280;33815;48.386;11.738;2023-03-21T09:21:20;96629.72;;;12.30;73.67
48041;BME280;33815;48.386;11.738;2023-03-21T09:23:47;96622.41;;;12.42;70.83
48041;BME280;33815;48.386;11.738;2023-03-21T09:26:17;96626.78;;;12.33;71.22
48041;BME280;33815;48.386;11.738;2023-03-21T09:28:43;96629.63;;;12.65;73.43
48041;BME280;33815;48.386;11.738;2023-03-21T09:31:10;96627.19;;;12.88;69.33
48041;BME280;33815;48.386;11.738;2023-03-21T09:33:38;96628.66;;;12.82;68.75
48041;BME280;33815;48.386;11.738;2023-03-21T09:36:07;96625.72;;;13.18;69.92
48041;BME280;33815;48.386;11.738;2023-03-21T09:38:36;96618.16;;;13.07;67.31
48041;BME280;33815;48.386;11.738;2023-03-21T09:47:22;96611.09;;;13.57;62.97
48041;BME280;33815;48.386;11.738;2023-03-21T09:50:00;96603.09;;;13.50;62.47
48041;BME280;33815;48.386;11.738;2023-03-21T09:52:44;96609.91;;;13.76;64.00
48041;BME280;33815;48.386;11.738;2023-03-21T09:55:17;96610.16;;;13.90;61.20
48041;BME280;33815;48.386;11.738;2023-03-21T09:57:44;96604.88;;;13.98;60.84
48041;BME280;33815;48.386;11.738;2023-03-21T10:00:15;96593.28;;;13.52;60.47
48041;BME280;33815;48.386;11.738;2023-03-21T10:02:49;96595.97;;;13.67;60.44
48041;BME280;33815;48.386;11.738;2023-03-21T10:05:20;96603.72;;;13.61;60.01
48041;BME280;33815;48.386;11.738;2023-03-21T10:07:54;96567.56;;;13.56;61.78
48041;BME280;33815;48.386;11.738;2023-03-21T10:10:26;96590.56;;;13.69;59.20
48041;BME280;33815;48.386;11.738;2023-03-21T10:12:54;96586.09;;;13.30;58.55
48041;BME280;33815;48.386;11.738;2023-03-21T10:15:22;96605.09;;;13.07;57.29
48041;BME280;33815;48.386;11.738;2023-03-21T10:17:52;96600.34;;;13.11;59.52
48041;BME280;33815;48.386;11.738;2023-03-21T10:20:21;96588.72;;;13.30;56.00
48041;BME280;33815;48.386;11.738;2023-03-21T10:22:49;96584.13;;;13.32;56.25
48041;BME280;33815;48.386;11.738;2023-03-21T10:25:19;96584.13;;;13.32;56.08
48041;BME280;33815;48.386;11.738;2023-03-21T10:27:46;96579.66;;;13.57;56.08
48041;BME280;33815;48.386;11.738;2023-03-21T10:30:23;96578.84;;;13.57;56.40
48041;BME280;33815;48.386;11.738;2023-03-21T10:32:50;96570.84;;;13.58;59.17
48041;BME280;33815;48.386;11.738;2023-03-21T10:35:16;96583.44;;;13.54;58.61
48041;BME280;33815;48.386;11.738;2023-03-21T10:37:42;96578.78;;;13.73;58.91
48041;BME280;33815;48.386;11.738;2023-03-21T10:40:14;96579.47;;;13.98;56.37
48041;BME280;33815;48.386;11.738;2023-03-21T10:42:40;96567.09;;;14.47;58.34
48041;BME280;33815;48.386;11.738;2023-03-21T10:45:13;96568.72;;;14.71;55.09
48041;BME280;33815;48.386;11.738;2023-03-21T10:47:39;96564.19;;;15.03;55.71
48041;BME280;33815;48.386;11.738;2023-03-21T10:50:06;96562.22;;;15.35;53.49
48041;BME280;33815;48.386;11.738;2023-03-21T10:52:32;96558.59;;;15.21;54.16
48041;BME280;33815;48.386;11.738;2023-03-21T10:55:24;96554.81;;;15.68;53.51
48041;BME280;33815;48.386;11.738;2023-03-21T10:57:56;96549.69;;;15.67;53.52
48041;BME280;33815;48.386;11.738;2023-03-21T11:00:26;96541.06;;;16.03;51.96
48041;BME280;33815;48.386;11.738;2023-03-21T11:02:53;96552.31;;;16.33;51.59
48041;BME280;33815;48.386;11.738;2023-03-21T11:05:20;96545.72;;;16.22;49.23
48041;BME280;33815;48.386;11.738;2023-03-21T11:07:51;96549.50;;;15.98;51.48
48041;BME280;33815;48.386;11.738;2023-03-21T11:10:30;96539.59;;;16.15;50.67
48041;BME280;33815;48.386;11.738;2023-03-21T11:12:58;96515.88;;;16.80;49.87
48041;BME280;33815;48.386;11.738;2023-03-21T11:17:51;96522.38;;;17.41;47.63
48041;BME280;33815;48.386;11.738;2023-03-21T11:20:17;96517.88;;;17.35;47.32
48041;BME280;33815;48.386;11.738;2023-03-21T11:22:43;96508.16;;;17.00;46.92
48041;BME280;33815;48.386;11.738;2023-03-21T11:25:19;96509.78;;;17.36;48.11
48041;BME280;33815;48.386;11.738;2023-03-21T11:27:49;96521.13;;;16.80;50.05
48041;BME280;33815;48.386;11.738;2023-03-21T11:30:20;96512.78;;;16.26;48.54
48041;BME280;33815;48.386;11.738;2023-03-21T11:32:50;96508.84;;;16.37;49.91
48041;BME280;33815;48.386;11.738;2023-03-21T11:35:19;96519.66;;;16.71;48.71
48041;BME280;33815;48.386;11.738;2023-03-21T11:37:49;96508.63;;;16.60;48.81
48041;BME280;33815;48.386;11.738;2023-03-21T11:40:35;96505.53;;;16.50;51.18
48041;BME280;33815;48.386;11.738;2023-03-21T11:43:05;96499.69;;;16.55;50.18
48041;BME280;33815;48.386;11.738;2023-03-21T11:46:08;96507.72;;;16.03;49.30
48041;BME280;33815;48.386;11.738;2023-03-21T11:48:43;96476.19;;;16.53;48.09
48041;BME280;33815;48.386;11.738;2023-03-21T11:51:21;96475.16;;;16.76;47.83
48041;BME280;33815;48.386;11.738;2023-03-21T11:56:41;96474.09;;;16.99;48.26
48041;BME280;33815;48.386;11.738;2023-03-21T11:59:32;96469.09;;;17.04;50.13
48041;BME280;33815;48.386;11.738;2023-03-21T12:05:04;96467.97;;;17.20;47.03
48041;BME280;33815;48.386;11.738;2023-03-21T12:10:36;96457.25;;;16.93;47.33
48041;BME280;33815;48.386;11.738;2023-03-21T12:13:25;96450.34;;;16.57;49.02
48041;BME280;33815;48.386;11.738;2023-03-21T12:16:17;96438.84;;;16.65;47.46
48041;BME280;33815;48.386;11.738;2023-03-21T12:21:42;96438.31;;;15.98;48.96
48041;BME280;33815;48.386;11.738;2023-03-21T12:26:50;96419.81;;;16.63;48.05
48041;BME280;33815;48.386;11.738;2023-03-21T12:29:38;96422.50;;;16.69;49.13
48041;BME280;33815;48.386;11.738;2023-03-21T12:35:25;96425.97;;;17.05;49.00
48041;BME280;33815;48.386;11.738;2023-03-21T12:43:43;96415.38;;;16.98;45.89
48041;BME280;33815;48.386;11.738;2023-03-21T12:46:16;96407.84;;;16.88;45.80
48041;BME280;33815;48.386;11.738;2023-03-21T12:48:46;96403.94;;;16.84;45.70
48041;BME280;33815;48.386;11.738;2023-03-21T12:51:18;96410.69;;;16.30;46.71
48041;BME280;33815;48.386;11.738;2023-03-21T12:56:44;96402.25;;;16.41;47.32
48041;BME280;33815;48.386;11.738;2023-03-21T12:59:27;96410.47;;;16.03;46.93
48041;BME280;33815;48.386;11.738;2023-03-21T13:01:58;96390.91;;;16.13;47.41
48041;BME280;33815;48.386;11.738;2023-03-21T13:04:37;96379.97;;;16.09;46.57
48041;BME280;33815;48.386;11.738;2023-03-21T13:07:08;96360.63;;;16.52;49.40
48041;BME280;33815;48.386;11.738;2023-03-21T13:09:37;96387.06;;;16.72;45.23
48041;BME280;33815;48.386;11.738;2023-03-21T13:12:18;96382.28;;;16.82;45.56
48041;BME280;33815;48.386;11.738;2023-03-21T13:14:57;96367.53;;;16.53;46.56
48041;BME280;33815;48.386;11.738;2023-03-21T13:17:43;96387.47;;;15.90;48.08
48041;BME280;33815;48.386;11.738;2023-03-21T13:20:26;96381.16;;;16.06;47.58
48041;BME280;33815;48.386;11.738;2023-03-21T13:22:53;96381.63;;;16.17;47.58
48041;BME280;33815;48.386;11.738;2023-03-21T13:25:23;96353.47;;;16.39;46.25
48041;BME280;33815;48.386;11.738;2023-03-21T13:27:52;96357.72;;;17.10;45.78
48041;BME280;33815;48.386;11.738;2023-03-21T13:30:21;96352.22;;;17.80;43.54
48041;BME280;33815;48.386;11.738;2023-03-21T13:32:51;96348.13;;;17.57;42.80
48041;BME280;33815;48.386;11.738;2023-03-21T13:35:23;96347.69;;;17.40;43.83
48041;BME280;33815;48.386;11.738;2023-03-21T13:40:49;96350.97;;;16.94;44.50
48041;BME280;33815;48.386;11.738;2023-03-21T13:43:39;96348.09;;;17.37;43.34
48041;BME280;33815;48.386;11.738;2023-03-21T13:49:12;96337.97;;;17.41;44.90
48041;BME280;33815;48.386;11.738;2023-03-21T14:00:27;96326.28;;;18.10;40.94
48041;BME280;33815;48.386;11.738;2023-03-21T14:05:23;96336.38;;;18.40;42.80
48041;BME280;33815;48.386;11.738;2023-03-21T14:08:07;96322.00;;;17.89;42.19
48041;BME280;33815;48.386;11.738;2023-03-21T14:10:38;96316.94;;;17.81;42.50
48041;BME280;33815;48.386;11.738;2023-03-21T14:13:05;96317.97;;;18.20;43.32
48041;BME280;33815;48.386;11.738;2023-03-21T14:15:41;96314.13;;;18.03;41.58
48041;BME280;33815;48.386;11.738;2023-03-21T14:18:14;96310.03;;;17.73;41.70